Garfield, NJ

4:01 AM EDT on September 03, 2014 (GMT -0400)
Outwater Lane, Lodi, NJ | Change Station
CLOSE
Current Station
Personal Weather Station
Location: Lodi, NJ
Elevation: 56 ft
Nearby Weather Stations

Elev 56 ft 40.89 °N, 74.09 °W | Updated 6 seconds ago

Clear
Clear
73.2 °F
Feels Like 75 °F
N
0.0
Wind Variable Wind from NNW
Gusts 2.0 mph

Today
High -- | Low -- °F
--% Chance of Precip.
Yesterday
High -- | Low -- °F
Precip. -- in
6:25 AM 7:25 PM
First Quarter, 60% visible
Pressure 29.86 in
Visibility 10.0 miles
Clouds Clear
Heat Index 75 °F
Dew Point 64 °F
Humidity 73%
Rainfall 0.00 in
Snow Depth Not available.
UV 0.0 out of 12
Pollen 8.40 out of 12
Air Quality Not available.
Flu Activity Not available.
METAR KTEB 030751Z 31007KT 10SM CLR 23/16 A2986 RMK AO2 SLP111 T02330161 $

More Conditions Fewer Conditions

Pressure 29.86 in
Visibility 10.0 miles
Clouds Clear
Heat Index 75 °F
Dew Point 64 °F
Humidity 73%
Rainfall 0.00 in
Snow Depth Not available.
UV 0.0 out of 12
Pollen 8.40 out of 12
Air Quality Not available.
Flu Activity Not available.
METAR KTEB 030751Z 31007KT 10SM CLR 23/16 A2986 RMK AO2 SLP111 T02330161 $

More Conditions Fewer Conditions

10-Day Weather Forecast

Almanac

Astronomy

Sep. 03, 2014 Rise Set
Actual Time 6:25 AM EDT 7:25 PM EDT
Civil Twilight 5:57 AM EDT 7:53 PM EDT
Nautical Twilight 5:23 AM EDT 8:26 PM EDT
Astronomical Twilight 4:48 AM EDT 9:01 PM EDT
Moon 3:06 PM EDT 12:15 AM EDT
Length of Visible Light 13h 56m
Length of Day
13h 00m
Tomorrow will be 2m 37s shorter.
First Quarter, 60% of the Moon is Illuminated
Today
First Quarter
Sep 8
Full
Sep 15
Last Quarter
Sep 24
New
Oct 1
First Quarter

Today's Extremes

State Highs State Lows

Community

WunderPhotos

Upload Photos

1,749,902 photos uploaded!

Nearby

Snow Depth

Station Depth Elevation
No new snow has been reported.

Earthquake Activity

City Distance Mag. Time & Date
No recent earthquake activity has been reported nearby.
Minimum magnitude displayed is 2.5.

Coastal Water Temperatures

Place Temperature
Sandy Hook, NJ 78.1 °F
The Battery, NY 73.9 °F
Bergen Point West Reach, NJ 75.0 °F
Kings Point, NY 73.9 °F

Nearby Weather Stations